sensor_id;sensor_type;location;lat;lon;timestamp;P1;durP1;ratioP1;P2;durP2;ratioP2
11771;SDS011;12556;55.748;13.194;2022-12-11T00:01:09;18.60;;;10.60;;
11771;SDS011;12556;55.748;13.194;2022-12-11T00:03:37;17.13;;;9.33;;
11771;SDS011;12556;55.748;13.194;2022-12-11T00:06:04;18.73;;;10.80;;
11771;SDS011;12556;55.748;13.194;2022-12-11T00:08:32;16.40;;;10.03;;
11771;SDS011;12556;55.748;13.194;2022-12-11T00:10:59;19.97;;;11.80;;
11771;SDS011;12556;55.748;13.194;2022-12-11T00:13:26;17.70;;;10.63;;
11771;SDS011;12556;55.748;13.194;2022-12-11T00:15:55;16.53;;;9.93;;
11771;SDS011;12556;55.748;13.194;2022-12-11T00:18:23;19.73;;;10.20;;
11771;SDS011;12556;55.748;13.194;2022-12-11T00:20:50;22.77;;;10.60;;
11771;SDS011;12556;55.748;13.194;2022-12-11T00:23:17;15.83;;;9.33;;
11771;SDS011;12556;55.748;13.194;2022-12-11T00:25:44;14.83;;;10.03;;
11771;SDS011;12556;55.748;13.194;2022-12-11T00:28:13;17.23;;;9.77;;
11771;SDS011;12556;55.748;13.194;2022-12-11T00:30:41;19.70;;;9.60;;
11771;SDS011;12556;55.748;13.194;2022-12-11T00:33:10;15.20;;;9.00;;
11771;SDS011;12556;55.748;13.194;2022-12-11T00:35:38;15.97;;;9.70;;
11771;SDS011;12556;55.748;13.194;2022-12-11T00:38:06;12.70;;;8.47;;
11771;SDS011;12556;55.748;13.194;2022-12-11T00:40:33;14.67;;;8.57;;
11771;SDS011;12556;55.748;13.194;2022-12-11T00:43:00;17.00;;;8.93;;
11771;SDS011;12556;55.748;13.194;2022-12-11T00:45:28;15.57;;;8.23;;
11771;SDS011;12556;55.748;13.194;2022-12-11T00:47:54;12.77;;;9.07;;
11771;SDS011;12556;55.748;13.194;2022-12-11T00:50:23;12.53;;;8.20;;
11771;SDS011;12556;55.748;13.194;2022-12-11T00:52:49;15.77;;;8.07;;
11771;SDS011;12556;55.748;13.194;2022-12-11T00:55:16;11.57;;;7.27;;
11771;SDS011;12556;55.748;13.194;2022-12-11T00:57:43;11.27;;;7.60;;
11771;SDS011;12556;55.748;13.194;2022-12-11T01:00:11;14.60;;;8.23;;
11771;SDS011;12556;55.748;13.194;2022-12-11T01:02:39;12.23;;;8.80;;
11771;SDS011;12556;55.748;13.194;2022-12-11T01:05:08;9.80;;;7.40;;
11771;SDS011;12556;55.748;13.194;2022-12-11T01:07:36;12.37;;;7.23;;
11771;SDS011;12556;55.748;13.194;2022-12-11T01:10:03;9.90;;;6.90;;
11771;SDS011;12556;55.748;13.194;2022-12-11T01:12:49;11.03;;;7.27;;
11771;SDS011;12556;55.748;13.194;2022-12-11T01:15:16;10.27;;;7.53;;
11771;SDS011;12556;55.748;13.194;2022-12-11T01:17:44;10.67;;;7.57;;
11771;SDS011;12556;55.748;13.194;2022-12-11T01:20:11;12.40;;;7.13;;
11771;SDS011;12556;55.748;13.194;2022-12-11T01:22:40;9.17;;;6.43;;
11771;SDS011;12556;55.748;13.194;2022-12-11T01:25:07;12.30;;;7.17;;
11771;SDS011;12556;55.748;13.194;2022-12-11T01:27:34;12.33;;;7.27;;
11771;SDS011;12556;55.748;13.194;2022-12-11T01:30:01;11.00;;;8.13;;
11771;SDS011;12556;55.748;13.194;2022-12-11T01:32:29;11.63;;;7.23;;
11771;SDS011;12556;55.748;13.194;2022-12-11T01:34:56;11.83;;;7.53;;
11771;SDS011;12556;55.748;13.194;2022-12-11T01:37:23;9.80;;;6.67;;
11771;SDS011;12556;55.748;13.194;2022-12-11T01:39:51;10.27;;;7.23;;
11771;SDS011;12556;55.748;13.194;2022-12-11T01:42:18;11.27;;;7.03;;
11771;SDS011;12556;55.748;13.194;2022-12-11T01:48:07;12.03;;;6.80;;
11771;SDS011;12556;55.748;13.194;2022-12-11T01:50:38;12.50;;;8.33;;
11771;SDS011;12556;55.748;13.194;2022-12-11T01:53:09;10.77;;;7.10;;
11771;SDS011;12556;55.748;13.194;2022-12-11T01:55:41;11.40;;;7.50;;
11771;SDS011;12556;55.748;13.194;2022-12-11T01:58:08;10.97;;;7.77;;
11771;SDS011;12556;55.748;13.194;2022-12-11T02:00:36;11.27;;;8.20;;
11771;SDS011;12556;55.748;13.194;2022-12-11T02:03:04;10.67;;;7.67;;
11771;SDS011;12556;55.748;13.194;2022-12-11T02:05:31;12.33;;;7.10;;
11771;SDS011;12556;55.748;13.194;2022-12-11T02:07:58;11.80;;;7.47;;
11771;SDS011;12556;55.748;13.194;2022-12-11T02:10:30;10.43;;;7.07;;
11771;SDS011;12556;55.748;13.194;2022-12-11T02:13:10;11.43;;;7.60;;
11771;SDS011;12556;55.748;13.194;2022-12-11T02:15:44;11.30;;;7.30;;
11771;SDS011;12556;55.748;13.194;2022-12-11T02:18:17;11.07;;;7.23;;
11771;SDS011;12556;55.748;13.194;2022-12-11T02:20:51;10.97;;;7.17;;
11771;SDS011;12556;55.748;13.194;2022-12-11T02:26:33;11.87;;;7.77;;
11771;SDS011;12556;55.748;13.194;2022-12-11T02:29:19;9.50;;;6.90;;
11771;SDS011;12556;55.748;13.194;2022-12-11T02:31:51;11.83;;;7.57;;
11771;SDS011;12556;55.748;13.194;2022-12-11T02:34:24;11.47;;;7.73;;
11771;SDS011;12556;55.748;13.194;2022-12-11T02:36:56;13.10;;;8.73;;
11771;SDS011;12556;55.748;13.194;2022-12-11T02:39:27;12.83;;;8.03;;
11771;SDS011;12556;55.748;13.194;2022-12-11T02:41:56;8.27;;;6.17;;
11771;SDS011;12556;55.748;13.194;2022-12-11T02:44:26;9.60;;;6.30;;
11771;SDS011;12556;55.748;13.194;2022-12-11T02:46:57;8.20;;;6.50;;
11771;SDS011;12556;55.748;13.194;2022-12-11T02:49:26;8.73;;;6.77;;
11771;SDS011;12556;55.748;13.194;2022-12-11T02:51:54;8.10;;;6.27;;
11771;SDS011;12556;55.748;13.194;2022-12-11T02:54:24;11.53;;;7.43;;
11771;SDS011;12556;55.748;13.194;2022-12-11T02:56:55;9.30;;;7.60;;
11771;SDS011;12556;55.748;13.194;2022-12-11T02:59:27;10.07;;;6.70;;
11771;SDS011;12556;55.748;13.194;2022-12-11T03:01:58;8.83;;;6.30;;
11771;SDS011;12556;55.748;13.194;2022-12-11T03:04:26;11.00;;;7.10;;
11771;SDS011;12556;55.748;13.194;2022-12-11T03:06:55;8.97;;;6.90;;
11771;SDS011;12556;55.748;13.194;2022-12-11T03:09:28;14.87;;;8.67;;
11771;SDS011;12556;55.748;13.194;2022-12-11T03:11:55;14.93;;;9.30;;
11771;SDS011;12556;55.748;13.194;2022-12-11T03:14:22;16.17;;;9.50;;
11771;SDS011;12556;55.748;13.194;2022-12-11T03:16:51;14.33;;;9.43;;
11771;SDS011;12556;55.748;13.194;2022-12-11T03:19:26;13.83;;;9.10;;
11771;SDS011;12556;55.748;13.194;2022-12-11T03:21:59;14.83;;;9.77;;
11771;SDS011;12556;55.748;13.194;2022-12-11T03:24:34;21.17;;;8.40;;
11771;SDS011;12556;55.748;13.194;2022-12-11T03:27:06;14.33;;;8.00;;
11771;SDS011;12556;55.748;13.194;2022-12-11T03:29:39;20.60;;;9.37;;
11771;SDS011;12556;55.748;13.194;2022-12-11T03:32:17;22.87;;;9.03;;
11771;SDS011;12556;55.748;13.194;2022-12-11T03:34:48;10.87;;;7.37;;
11771;SDS011;12556;55.748;13.194;2022-12-11T03:37:19;11.83;;;7.10;;
11771;SDS011;12556;55.748;13.194;2022-12-11T03:39:50;11.77;;;7.83;;
11771;SDS011;12556;55.748;13.194;2022-12-11T03:42:19;14.57;;;8.60;;
11771;SDS011;12556;55.748;13.194;2022-12-11T03:44:49;21.07;;;9.13;;
11771;SDS011;12556;55.748;13.194;2022-12-11T03:47:21;13.17;;;9.60;;
11771;SDS011;12556;55.748;13.194;2022-12-11T03:49:50;16.40;;;9.20;;
11771;SDS011;12556;55.748;13.194;2022-12-11T03:52:18;17.30;;;9.20;;
11771;SDS011;12556;55.748;13.194;2022-12-11T03:54:46;12.23;;;8.43;;
11771;SDS011;12556;55.748;13.194;2022-12-11T03:57:16;11.27;;;8.10;;
11771;SDS011;12556;55.748;13.194;2022-12-11T03:59:46;13.50;;;8.60;;
11771;SDS011;12556;55.748;13.194;2022-12-11T04:02:13;10.03;;;7.87;;
11771;SDS011;12556;55.748;13.194;2022-12-11T04:04:42;10.17;;;7.77;;
11771;SDS011;12556;55.748;13.194;2022-12-11T04:07:09;10.87;;;8.23;;
11771;SDS011;12556;55.748;13.194;2022-12-11T04:09:36;10.33;;;8.30;;
11771;SDS011;12556;55.748;13.194;2022-12-11T04:12:03;14.27;;;8.03;;
11771;SDS011;12556;55.748;13.194;2022-12-11T04:14:30;15.03;;;8.97;;
11771;SDS011;12556;55.748;13.194;2022-12-11T04:17:14;11.23;;;8.00;;
11771;SDS011;12556;55.748;13.194;2022-12-11T04:20:03;11.87;;;9.07;;
11771;SDS011;12556;55.748;13.194;2022-12-11T04:22:49;20.23;;;8.90;;
11771;SDS011;12556;55.748;13.194;2022-12-11T04:25:33;13.07;;;8.50;;
11771;SDS011;12556;55.748;13.194;2022-12-11T04:28:00;9.03;;;7.10;;
11771;SDS011;12556;55.748;13.194;2022-12-11T04:30:27;10.67;;;6.70;;
11771;SDS011;12556;55.748;13.194;2022-12-11T04:32:54;14.03;;;7.60;;
11771;SDS011;12556;55.748;13.194;2022-12-11T04:35:22;10.30;;;6.33;;
11771;SDS011;12556;55.748;13.194;2022-12-11T04:37:50;6.60;;;5.67;;
11771;SDS011;12556;55.748;13.194;2022-12-11T04:40:18;14.13;;;6.70;;
11771;SDS011;12556;55.748;13.194;2022-12-11T04:42:45;15.33;;;7.23;;
11771;SDS011;12556;55.748;13.194;2022-12-11T04:45:12;22.07;;;8.50;;
11771;SDS011;12556;55.748;13.194;2022-12-11T04:47:39;9.90;;;7.43;;
11771;SDS011;12556;55.748;13.194;2022-12-11T04:50:08;10.47;;;8.57;;
11771;SDS011;12556;55.748;13.194;2022-12-11T04:52:38;31.57;;;9.80;;
11771;SDS011;12556;55.748;13.194;2022-12-11T04:55:05;28.87;;;9.63;;
11771;SDS011;12556;55.748;13.194;2022-12-11T04:57:33;12.43;;;6.27;;
11771;SDS011;12556;55.748;13.194;2022-12-11T05:00:00;9.90;;;5.70;;
11771;SDS011;12556;55.748;13.194;2022-12-11T05:02:28;7.13;;;4.83;;
11771;SDS011;12556;55.748;13.194;2022-12-11T05:04:55;12.77;;;6.03;;
11771;SDS011;12556;55.748;13.194;2022-12-11T05:07:22;9.00;;;5.57;;
11771;SDS011;12556;55.748;13.194;2022-12-11T05:09:51;20.80;;;8.73;;
11771;SDS011;12556;55.748;13.194;2022-12-11T05:12:17;16.50;;;8.27;;
11771;SDS011;12556;55.748;13.194;2022-12-11T05:14:44;27.30;;;10.37;;
11771;SDS011;12556;55.748;13.194;2022-12-11T05:17:11;14.73;;;7.70;;
11771;SDS011;12556;55.748;13.194;2022-12-11T05:19:38;15.80;;;8.57;;
11771;SDS011;12556;55.748;13.194;2022-12-11T05:22:05;8.53;;;7.00;;
11771;SDS011;12556;55.748;13.194;2022-12-11T05:24:32;13.13;;;7.17;;
11771;SDS011;12556;55.748;13.194;2022-12-11T05:27:00;10.63;;;7.27;;
11771;SDS011;12556;55.748;13.194;2022-12-11T05:29:27;15.53;;;7.47;;
11771;SDS011;12556;55.748;13.194;2022-12-11T05:31:54;19.50;;;8.30;;
11771;SDS011;12556;55.748;13.194;2022-12-11T05:34:21;17.87;;;5.93;;
11771;SDS011;12556;55.748;13.194;2022-12-11T05:36:48;18.47;;;5.53;;
11771;SDS011;12556;55.748;13.194;2022-12-11T05:39:15;24.53;;;5.97;;
11771;SDS011;12556;55.748;13.194;2022-12-11T05:41:41;16.77;;;6.30;;
11771;SDS011;12556;55.748;13.194;2022-12-11T05:44:10;7.83;;;5.20;;
11771;SDS011;12556;55.748;13.194;2022-12-11T05:46:38;13.00;;;7.10;;
11771;SDS011;12556;55.748;13.194;2022-12-11T05:49:05;13.23;;;7.03;;
11771;SDS011;12556;55.748;13.194;2022-12-11T05:51:33;17.20;;;6.17;;
11771;SDS011;12556;55.748;13.194;2022-12-11T05:54:00;14.37;;;5.37;;
11771;SDS011;12556;55.748;13.194;2022-12-11T05:56:28;7.63;;;5.23;;
11771;SDS011;12556;55.748;13.194;2022-12-11T05:58:57;8.17;;;5.17;;
11771;SDS011;12556;55.748;13.194;2022-12-11T06:01:27;6.40;;;4.07;;
11771;SDS011;12556;55.748;13.194;2022-12-11T06:03:56;19.70;;;5.43;;
11771;SDS011;12556;55.748;13.194;2022-12-11T06:06:24;9.77;;;4.40;;
11771;SDS011;12556;55.748;13.194;2022-12-11T06:08:51;9.27;;;4.87;;
11771;SDS011;12556;55.748;13.194;2022-12-11T06:11:20;13.23;;;5.43;;
11771;SDS011;12556;55.748;13.194;2022-12-11T06:13:47;7.53;;;4.53;;
11771;SDS011;12556;55.748;13.194;2022-12-11T06:16:14;12.90;;;6.43;;
11771;SDS011;12556;55.748;13.194;2022-12-11T06:18:43;14.90;;;5.97;;
11771;SDS011;12556;55.748;13.194;2022-12-11T06:21:11;7.67;;;5.17;;
11771;SDS011;12556;55.748;13.194;2022-12-11T06:23:39;8.43;;;5.23;;
11771;SDS011;12556;55.748;13.194;2022-12-11T06:26:06;9.47;;;5.27;;
11771;SDS011;12556;55.748;13.194;2022-12-11T06:28:33;11.27;;;6.03;;
11771;SDS011;12556;55.748;13.194;2022-12-11T06:31:01;12.13;;;5.67;;
11771;SDS011;12556;55.748;13.194;2022-12-11T06:33:28;17.17;;;6.00;;
11771;SDS011;12556;55.748;13.194;2022-12-11T06:35:56;14.20;;;6.23;;
11771;SDS011;12556;55.748;13.194;2022-12-11T06:38:27;9.00;;;6.70;;
11771;SDS011;12556;55.748;13.194;2022-12-11T06:40:54;9.53;;;6.73;;
11771;SDS011;12556;55.748;13.194;2022-12-11T06:43:21;11.97;;;6.93;;
11771;SDS011;12556;55.748;13.194;2022-12-11T06:45:48;25.57;;;6.93;;
11771;SDS011;12556;55.748;13.194;2022-12-11T06:48:16;10.97;;;6.07;;
11771;SDS011;12556;55.748;13.194;2022-12-11T06:50:43;7.80;;;6.30;;
11771;SDS011;12556;55.748;13.194;2022-12-11T06:53:12;8.67;;;5.17;;
11771;SDS011;12556;55.748;13.194;2022-12-11T06:55:39;9.83;;;5.00;;
11771;SDS011;12556;55.748;13.194;2022-12-11T06:58:06;9.83;;;4.87;;
11771;SDS011;12556;55.748;13.194;2022-12-11T07:00:34;7.43;;;4.67;;
11771;SDS011;12556;55.748;13.194;2022-12-11T07:03:01;6.17;;;4.30;;
11771;SDS011;12556;55.748;13.194;2022-12-11T07:05:29;11.33;;;4.90;;
11771;SDS011;12556;55.748;13.194;2022-12-11T07:07:56;6.10;;;4.10;;
11771;SDS011;12556;55.748;13.194;2022-12-11T07:10:24;10.37;;;4.77;;
11771;SDS011;12556;55.748;13.194;2022-12-11T07:12:51;6.47;;;4.67;;
11771;SDS011;12556;55.748;13.194;2022-12-11T07:15:18;7.47;;;4.33;;
11771;SDS011;12556;55.748;13.194;2022-12-11T07:17:45;9.40;;;4.57;;
11771;SDS011;12556;55.748;13.194;2022-12-11T07:20:12;11.57;;;4.90;;
11771;SDS011;12556;55.748;13.194;2022-12-11T07:22:39;6.73;;;4.50;;
11771;SDS011;12556;55.748;13.194;2022-12-11T07:25:07;8.63;;;4.73;;
11771;SDS011;12556;55.748;13.194;2022-12-11T07:27:35;21.47;;;5.87;;
11771;SDS011;12556;55.748;13.194;2022-12-11T07:30:03;5.67;;;4.13;;
11771;SDS011;12556;55.748;13.194;2022-12-11T07:32:30;4.80;;;4.03;;
11771;SDS011;12556;55.748;13.194;2022-12-11T07:34:57;4.87;;;4.30;;
11771;SDS011;12556;55.748;13.194;2022-12-11T07:37:24;7.47;;;4.20;;
11771;SDS011;12556;55.748;13.194;2022-12-11T07:39:50;7.57;;;4.07;;
11771;SDS011;12556;55.748;13.194;2022-12-11T07:42:17;14.03;;;5.13;;
11771;SDS011;12556;55.748;13.194;2022-12-11T07:44:46;7.47;;;4.30;;
11771;SDS011;12556;55.748;13.194;2022-12-11T07:47:13;6.77;;;4.67;;
11771;SDS011;12556;55.748;13.194;2022-12-11T07:49:40;5.10;;;3.77;;
11771;SDS011;12556;55.748;13.194;2022-12-11T07:52:07;6.53;;;4.13;;
11771;SDS011;12556;55.748;13.194;2022-12-11T07:54:34;5.33;;;3.97;;
11771;SDS011;12556;55.748;13.194;2022-12-11T07:57:01;5.30;;;4.30;;
11771;SDS011;12556;55.748;13.194;2022-12-11T07:59:28;7.50;;;4.50;;
11771;SDS011;12556;55.748;13.194;2022-12-11T08:01:56;4.80;;;4.27;;
11771;SDS011;12556;55.748;13.194;2022-12-11T08:04:23;5.17;;;4.03;;
11771;SDS011;12556;55.748;13.194;2022-12-11T08:06:50;6.37;;;4.07;;
11771;SDS011;12556;55.748;13.194;2022-12-11T08:09:17;6.13;;;4.07;;
11771;SDS011;12556;55.748;13.194;2022-12-11T08:11:46;7.23;;;5.57;;
11771;SDS011;12556;55.748;13.194;2022-12-11T08:14:14;6.90;;;4.93;;
11771;SDS011;12556;55.748;13.194;2022-12-11T08:16:41;7.20;;;4.60;;
11771;SDS011;12556;55.748;13.194;2022-12-11T08:19:10;6.03;;;4.57;;
11771;SDS011;12556;55.748;13.194;2022-12-11T08:21:37;4.30;;;3.60;;
11771;SDS011;12556;55.748;13.194;2022-12-11T08:24:06;5.73;;;4.50;;
11771;SDS011;12556;55.748;13.194;2022-12-11T08:26:34;8.20;;;5.80;;
11771;SDS011;12556;55.748;13.194;2022-12-11T08:29:01;7.43;;;5.90;;
11771;SDS011;12556;55.748;13.194;2022-12-11T08:31:29;5.87;;;5.27;;
11771;SDS011;12556;55.748;13.194;2022-12-11T08:33:57;6.67;;;5.43;;
11771;SDS011;12556;55.748;13.194;2022-12-11T08:36:25;8.27;;;5.40;;
11771;SDS011;12556;55.748;13.194;2022-12-11T08:38:53;6.73;;;4.90;;
11771;SDS011;12556;55.748;13.194;2022-12-11T08:41:21;6.47;;;5.10;;
11771;SDS011;12556;55.748;13.194;2022-12-11T08:43:50;8.70;;;5.60;;
11771;SDS011;12556;55.748;13.194;2022-12-11T08:46:19;6.67;;;4.60;;
11771;SDS011;12556;55.748;13.194;2022-12-11T08:48:47;7.77;;;6.03;;
11771;SDS011;12556;55.748;13.194;2022-12-11T08:51:16;11.70;;;6.80;;
11771;SDS011;12556;55.748;13.194;2022-12-11T08:53:48;9.10;;;6.10;;
11771;SDS011;12556;55.748;13.194;2022-12-11T08:56:16;7.37;;;5.57;;
11771;SDS011;12556;55.748;13.194;2022-12-11T08:58:45;10.13;;;7.00;;
11771;SDS011;12556;55.748;13.194;2022-12-11T09:01:13;10.50;;;6.13;;
11771;SDS011;12556;55.748;13.194;2022-12-11T09:03:43;13.33;;;7.57;;
11771;SDS011;12556;55.748;13.194;2022-12-11T09:06:11;8.73;;;6.67;;
11771;SDS011;12556;55.748;13.194;2022-12-11T09:08:39;5.83;;;4.53;;
11771;SDS011;12556;55.748;13.194;2022-12-11T09:11:08;7.03;;;5.10;;
11771;SDS011;12556;55.748;13.194;2022-12-11T09:13:37;7.50;;;4.83;;
11771;SDS011;12556;55.748;13.194;2022-12-11T09:16:05;7.83;;;5.57;;
11771;SDS011;12556;55.748;13.194;2022-12-11T09:18:33;9.17;;;6.30;;
11771;SDS011;12556;55.748;13.194;2022-12-11T09:21:00;6.20;;;5.20;;
11771;SDS011;12556;55.748;13.194;2022-12-11T09:23:28;6.87;;;5.13;;
11771;SDS011;12556;55.748;13.194;2022-12-11T09:25:56;5.80;;;5.20;;
11771;SDS011;12556;55.748;13.194;2022-12-11T09:28:24;7.37;;;6.60;;
11771;SDS011;12556;55.748;13.194;2022-12-11T09:30:51;11.20;;;7.87;;
11771;SDS011;12556;55.748;13.194;2022-12-11T09:33:18;10.63;;;7.20;;
11771;SDS011;12556;55.748;13.194;2022-12-11T09:35:45;7.30;;;6.47;;
11771;SDS011;12556;55.748;13.194;2022-12-11T09:38:21;8.80;;;6.30;;
11771;SDS011;12556;55.748;13.194;2022-12-11T09:40:48;6.07;;;5.47;;
11771;SDS011;12556;55.748;13.194;2022-12-11T09:43:17;7.20;;;5.53;;
11771;SDS011;12556;55.748;13.194;2022-12-11T09:45:55;6.90;;;5.67;;
11771;SDS011;12556;55.748;13.194;2022-12-11T09:48:23;8.47;;;6.33;;
11771;SDS011;12556;55.748;13.194;2022-12-11T09:50:52;9.63;;;6.47;;
11771;SDS011;12556;55.748;13.194;2022-12-11T09:53:20;8.73;;;7.27;;
11771;SDS011;12556;55.748;13.194;2022-12-11T09:56:02;11.20;;;7.60;;
11771;SDS011;12556;55.748;13.194;2022-12-11T09:58:36;7.87;;;6.33;;
11771;SDS011;12556;55.748;13.194;2022-12-11T10:01:13;6.83;;;5.37;;
11771;SDS011;12556;55.748;13.194;2022-12-11T10:03:50;12.67;;;9.57;;
11771;SDS011;12556;55.748;13.194;2022-12-11T10:06:32;10.87;;;8.87;;
11771;SDS011;12556;55.748;13.194;2022-12-11T10:09:06;11.13;;;8.00;;
11771;SDS011;12556;55.748;13.194;2022-12-11T10:11:46;6.83;;;5.83;;
11771;SDS011;12556;55.748;13.194;2022-12-11T10:14:27;6.43;;;5.17;;
11771;SDS011;12556;55.748;13.194;2022-12-11T10:17:05;9.90;;;7.80;;
11771;SDS011;12556;55.748;13.194;2022-12-11T10:19:37;7.37;;;6.03;;
11771;SDS011;12556;55.748;13.194;2022-12-11T10:22:07;8.13;;;6.40;;
11771;SDS011;12556;55.748;13.194;2022-12-11T10:24:43;6.93;;;5.53;;
11771;SDS011;12556;55.748;13.194;2022-12-11T10:27:16;5.63;;;5.07;;
11771;SDS011;12556;55.748;13.194;2022-12-11T10:29:46;6.63;;;5.07;;
11771;SDS011;12556;55.748;13.194;2022-12-11T10:32:21;7.80;;;5.47;;
11771;SDS011;12556;55.748;13.194;2022-12-11T10:34:50;6.73;;;5.00;;
11771;SDS011;12556;55.748;13.194;2022-12-11T10:37:24;10.40;;;5.50;;
11771;SDS011;12556;55.748;13.194;2022-12-11T10:39:52;6.90;;;5.47;;
11771;SDS011;12556;55.748;13.194;2022-12-11T10:42:19;6.70;;;4.93;;
11771;SDS011;12556;55.748;13.194;2022-12-11T10:44:55;4.90;;;4.23;;
11771;SDS011;12556;55.748;13.194;2022-12-11T10:47:23;5.67;;;4.30;;
11771;SDS011;12556;55.748;13.194;2022-12-11T10:49:52;7.13;;;5.23;;
11771;SDS011;12556;55.748;13.194;2022-12-11T10:52:21;5.00;;;4.03;;
11771;SDS011;12556;55.748;13.194;2022-12-11T10:54:53;6.63;;;5.10;;
11771;SDS011;12556;55.748;13.194;2022-12-11T10:57:25;5.83;;;4.93;;
11771;SDS011;12556;55.748;13.194;2022-12-11T10:59:55;14.43;;;5.57;;
11771;SDS011;12556;55.748;13.194;2022-12-11T11:02:25;8.33;;;6.47;;
11771;SDS011;12556;55.748;13.194;2022-12-11T11:04:54;7.37;;;5.77;;
11771;SDS011;12556;55.748;13.194;2022-12-11T11:07:23;7.07;;;6.07;;
11771;SDS011;12556;55.748;13.194;2022-12-11T11:10:03;9.57;;;6.97;;
11771;SDS011;12556;55.748;13.194;2022-12-11T11:12:40;8.37;;;6.33;;
11771;SDS011;12556;55.748;13.194;2022-12-11T11:15:11;8.43;;;7.37;;
11771;SDS011;12556;55.748;13.194;2022-12-11T11:17:41;6.13;;;5.53;;
11771;SDS011;12556;55.748;13.194;2022-12-11T11:20:12;5.33;;;4.83;;
11771;SDS011;12556;55.748;13.194;2022-12-11T11:22:41;7.20;;;5.43;;
11771;SDS011;12556;55.748;13.194;2022-12-11T11:25:14;6.53;;;5.37;;
11771;SDS011;12556;55.748;13.194;2022-12-11T11:27:44;6.63;;;5.20;;
11771;SDS011;12556;55.748;13.194;2022-12-11T11:30:18;9.67;;;6.60;;
11771;SDS011;12556;55.748;13.194;2022-12-11T11:32:48;8.73;;;6.47;;
11771;SDS011;12556;55.748;13.194;2022-12-11T11:35:18;6.63;;;5.70;;
11771;SDS011;12556;55.748;13.194;2022-12-11T11:37:53;7.30;;;5.73;;
11771;SDS011;12556;55.748;13.194;2022-12-11T11:40:26;5.17;;;4.47;;
11771;SDS011;12556;55.748;13.194;2022-12-11T11:42:57;4.53;;;4.13;;
11771;SDS011;12556;55.748;13.194;2022-12-11T11:45:35;5.87;;;4.77;;
11771;SDS011;12556;55.748;13.194;2022-12-11T11:48:14;7.17;;;5.67;;
11771;SDS011;12556;55.748;13.194;2022-12-11T11:50:49;7.10;;;5.53;;
11771;SDS011;12556;55.748;13.194;2022-12-11T11:53:18;7.03;;;5.27;;
11771;SDS011;12556;55.748;13.194;2022-12-11T11:55:51;8.23;;;5.63;;
11771;SDS011;12556;55.748;13.194;2022-12-11T11:58:26;7.40;;;6.27;;
11771;SDS011;12556;55.748;13.194;2022-12-11T12:01:03;6.87;;;5.63;;
11771;SDS011;12556;55.748;13.194;2022-12-11T12:03:30;7.47;;;5.80;;
11771;SDS011;12556;55.748;13.194;2022-12-11T12:06:00;6.40;;;5.57;;
11771;SDS011;12556;55.748;13.194;2022-12-11T12:08:40;3.83;;;3.47;;
11771;SDS011;12556;55.748;13.194;2022-12-11T12:11:13;3.67;;;3.27;;
11771;SDS011;12556;55.748;13.194;2022-12-11T12:13:52;4.57;;;4.17;;
11771;SDS011;12556;55.748;13.194;2022-12-11T12:16:30;6.30;;;5.57;;
11771;SDS011;12556;55.748;13.194;2022-12-11T12:19:06;8.70;;;6.07;;
11771;SDS011;12556;55.748;13.194;2022-12-11T12:21:42;9.23;;;6.43;;
11771;SDS011;12556;55.748;13.194;2022-12-11T12:24:17;12.97;;;8.43;;
11771;SDS011;12556;55.748;13.194;2022-12-11T12:26:54;9.17;;;5.53;;
11771;SDS011;12556;55.748;13.194;2022-12-11T12:29:28;7.47;;;5.57;;
11771;SDS011;12556;55.748;13.194;2022-12-11T12:32:14;8.73;;;6.13;;
11771;SDS011;12556;55.748;13.194;2022-12-11T12:35:02;7.07;;;4.70;;
11771;SDS011;12556;55.748;13.194;2022-12-11T12:37:43;6.67;;;5.07;;
11771;SDS011;12556;55.748;13.194;2022-12-11T12:40:18;11.80;;;8.07;;
11771;SDS011;12556;55.748;13.194;2022-12-11T12:42:57;8.43;;;5.73;;
11771;SDS011;12556;55.748;13.194;2022-12-11T12:45:31;4.37;;;3.90;;
11771;SDS011;12556;55.748;13.194;2022-12-11T12:48:03;5.07;;;4.00;;
11771;SDS011;12556;55.748;13.194;2022-12-11T12:50:33;3.97;;;3.17;;
11771;SDS011;12556;55.748;13.194;2022-12-11T12:53:03;3.60;;;3.30;;
11771;SDS011;12556;55.748;13.194;2022-12-11T12:55:31;4.17;;;3.30;;
11771;SDS011;12556;55.748;13.194;2022-12-11T12:58:02;5.53;;;3.30;;
11771;SDS011;12556;55.748;13.194;2022-12-11T13:00:31;3.77;;;3.30;;
11771;SDS011;12556;55.748;13.194;2022-12-11T13:03:00;5.07;;;4.10;;
11771;SDS011;12556;55.748;13.194;2022-12-11T13:05:39;5.57;;;4.40;;
11771;SDS011;12556;55.748;13.194;2022-12-11T13:08:08;3.40;;;3.10;;
11771;SDS011;12556;55.748;13.194;2022-12-11T13:10:37;5.23;;;3.47;;
11771;SDS011;12556;55.748;13.194;2022-12-11T13:16:04;3.83;;;3.53;;
11771;SDS011;12556;55.748;13.194;2022-12-11T13:18:33;3.90;;;3.60;;
11771;SDS011;12556;55.748;13.194;2022-12-11T13:21:22;5.07;;;4.17;;
11771;SDS011;12556;55.748;13.194;2022-12-11T13:23:52;6.57;;;5.80;;
11771;SDS011;12556;55.748;13.194;2022-12-11T13:26:26;7.03;;;5.63;;
11771;SDS011;12556;55.748;13.194;2022-12-11T13:28:53;6.10;;;5.50;;
11771;SDS011;12556;55.748;13.194;2022-12-11T13:31:25;6.07;;;5.07;;
11771;SDS011;12556;55.748;13.194;2022-12-11T13:34:01;7.43;;;5.23;;
11771;SDS011;12556;55.748;13.194;2022-12-11T13:36:35;6.23;;;5.60;;
11771;SDS011;12556;55.748;13.194;2022-12-11T13:39:05;6.17;;;4.83;;
11771;SDS011;12556;55.748;13.194;2022-12-11T13:41:42;5.10;;;4.60;;
11771;SDS011;12556;55.748;13.194;2022-12-11T13:44:12;4.93;;;4.53;;
11771;SDS011;12556;55.748;13.194;2022-12-11T13:46:45;5.67;;;4.13;;
11771;SDS011;12556;55.748;13.194;2022-12-11T13:49:17;5.53;;;4.27;;
11771;SDS011;12556;55.748;13.194;2022-12-11T13:51:53;4.60;;;4.20;;
11771;SDS011;12556;55.748;13.194;2022-12-11T13:54:22;6.93;;;4.20;;
11771;SDS011;12556;55.748;13.194;2022-12-11T13:56:54;4.87;;;4.43;;
11771;SDS011;12556;55.748;13.194;2022-12-11T13:59:24;5.60;;;4.10;;
11771;SDS011;12556;55.748;13.194;2022-12-11T14:01:54;5.07;;;4.37;;
11771;SDS011;12556;55.748;13.194;2022-12-11T14:04:23;5.37;;;4.87;;
11771;SDS011;12556;55.748;13.194;2022-12-11T14:06:54;5.07;;;4.37;;
11771;SDS011;12556;55.748;13.194;2022-12-11T14:09:22;4.77;;;4.27;;
11771;SDS011;12556;55.748;13.194;2022-12-11T14:11:51;6.07;;;4.47;;
11771;SDS011;12556;55.748;13.194;2022-12-11T14:14:21;4.63;;;3.87;;
11771;SDS011;12556;55.748;13.194;2022-12-11T14:16:50;4.43;;;4.03;;
11771;SDS011;12556;55.748;13.194;2022-12-11T14:19:18;4.70;;;3.80;;
11771;SDS011;12556;55.748;13.194;2022-12-11T14:21:57;5.10;;;4.20;;
11771;SDS011;12556;55.748;13.194;2022-12-11T14:24:25;5.60;;;4.53;;
11771;SDS011;12556;55.748;13.194;2022-12-11T14:26:54;5.40;;;4.33;;
11771;SDS011;12556;55.748;13.194;2022-12-11T14:29:25;4.73;;;4.23;;
11771;SDS011;12556;55.748;13.194;2022-12-11T14:31:53;5.17;;;4.67;;
11771;SDS011;12556;55.748;13.194;2022-12-11T14:34:23;8.57;;;5.40;;
11771;SDS011;12556;55.748;13.194;2022-12-11T14:36:55;7.87;;;6.33;;
11771;SDS011;12556;55.748;13.194;2022-12-11T14:39:25;6.37;;;5.10;;
11771;SDS011;12556;55.748;13.194;2022-12-11T14:41:57;4.60;;;4.20;;
11771;SDS011;12556;55.748;13.194;2022-12-11T14:44:28;6.37;;;3.93;;
11771;SDS011;12556;55.748;13.194;2022-12-11T14:46:57;5.97;;;4.10;;
11771;SDS011;12556;55.748;13.194;2022-12-11T14:49:30;6.43;;;5.57;;
11771;SDS011;12556;55.748;13.194;2022-12-11T14:52:06;9.50;;;5.90;;
11771;SDS011;12556;55.748;13.194;2022-12-11T14:54:44;7.60;;;6.07;;